createdAt,value
2023-01-22T00:02:11.706Z,-2.64
2023-01-22T00:04:40.088Z,-2.66
2023-01-22T00:07:08.932Z,-2.74
2023-01-22T00:09:37.203Z,-2.80
2023-01-22T00:12:10.970Z,-2.83
2023-01-22T00:14:44.210Z,-2.85
2023-01-22T00:17:14.617Z,-2.89
2023-01-22T00:19:43.506Z,-2.93
2023-01-22T00:22:12.891Z,-2.97
2023-01-22T00:24:42.229Z,-3.01
2023-01-22T00:27:12.612Z,-3.05
2023-01-22T00:29:41.441Z,-3.08
2023-01-22T00:32:12.609Z,-3.10
2023-01-22T00:34:40.846Z,-3.14
2023-01-22T00:37:09.254Z,-3.14
2023-01-22T00:39:38.303Z,-3.13
2023-01-22T00:42:07.035Z,-3.09
2023-01-22T00:44:37.199Z,-3.06
2023-01-22T00:47:06.116Z,-3.03
2023-01-22T00:49:34.801Z,-3.02
2023-01-22T00:52:03.830Z,-3.04
2023-01-22T00:54:32.470Z,-2.97
2023-01-22T00:57:01.207Z,-2.93
2023-01-22T00:59:30.052Z,-2.92
2023-01-22T01:02:00.530Z,-2.88
2023-01-22T01:04:29.381Z,-2.84
2023-01-22T01:06:57.870Z,-2.81
2023-01-22T01:09:26.485Z,-2.80
2023-01-22T01:11:54.899Z,-2.78
2023-01-22T01:14:30.616Z,-2.87
2023-01-22T01:17:00.709Z,-2.67
2023-01-22T01:19:47.757Z,-2.63
2023-01-22T01:22:16.403Z,-2.61
2023-01-22T01:24:47.841Z,-2.58
2023-01-22T01:27:16.796Z,-2.60
2023-01-22T01:29:45.383Z,-2.58
2023-01-22T01:32:15.197Z,-2.60
2023-01-22T01:34:44.165Z,-2.63
2023-01-22T01:37:13.358Z,-2.61
2023-01-22T01:39:41.857Z,-2.61
2023-01-22T01:42:10.670Z,-2.61
2023-01-22T01:44:41.623Z,-2.59
2023-01-22T01:51:13.895Z,-2.57
2023-01-22T01:53:44.440Z,-2.54
2023-01-22T01:56:16.177Z,-2.51
2023-01-22T01:58:46.750Z,-2.48
2023-01-22T02:01:16.701Z,-2.49
2023-01-22T02:03:45.804Z,-2.53
2023-01-22T02:06:17.348Z,-2.54
2023-01-22T02:08:48.226Z,-2.54
2023-01-22T02:11:18.770Z,-2.54
2023-01-22T02:13:51.434Z,-2.58
2023-01-22T02:16:20.481Z,-2.58
2023-01-22T02:18:49.023Z,-2.56
2023-01-22T02:21:35.747Z,-2.53
2023-01-22T02:24:04.885Z,-2.51
2023-01-22T02:26:33.948Z,-2.50
2023-01-22T02:29:02.790Z,-2.47
2023-01-22T02:31:31.532Z,-2.45
2023-01-22T02:34:02.707Z,-2.45
2023-01-22T02:36:33.804Z,-2.45
2023-01-22T02:39:03.141Z,-2.43
2023-01-22T02:41:31.747Z,-2.42
2023-01-22T02:44:00.535Z,-2.36
2023-01-22T02:46:30.712Z,-2.33
2023-01-22T02:48:59.366Z,-2.30
2023-01-22T02:51:27.907Z,-2.29
2023-01-22T02:53:57.664Z,-2.26
2023-01-22T02:56:26.305Z,-2.25
2023-01-22T02:58:54.925Z,-2.24
2023-01-22T03:01:25.286Z,-2.26
2023-01-22T03:03:55.890Z,-2.34
2023-01-22T03:06:26.613Z,-2.34
2023-01-22T03:08:58.518Z,-2.35
2023-01-22T03:11:29.532Z,-2.33
2023-01-22T03:14:15.592Z,-2.36
2023-01-22T03:17:02.603Z,-2.35
2023-01-22T03:19:51.519Z,-2.34
2023-01-22T03:22:20.384Z,-2.54
2023-01-22T03:24:53.042Z,-2.47
2023-01-22T03:27:23.054Z,-2.50
2023-01-22T03:29:52.349Z,-2.51
2023-01-22T03:32:21.391Z,-2.54
2023-01-22T03:34:50.053Z,-2.57
2023-01-22T03:37:18.543Z,-2.55
2023-01-22T03:39:46.914Z,-2.55
2023-01-22T03:42:16.585Z,-2.55
2023-01-22T03:44:45.381Z,-2.50
2023-01-22T03:47:14.073Z,-2.45
2023-01-22T03:49:42.761Z,-2.42
2023-01-22T03:52:11.248Z,-2.41
2023-01-22T03:54:40.170Z,-2.37
2023-01-22T03:57:14.720Z,-2.35
2023-01-22T03:59:45.272Z,-2.28
2023-01-22T04:02:14.079Z,-2.29
2023-01-22T04:04:45.821Z,-2.28
2023-01-22T04:07:14.378Z,-2.31
2023-01-22T04:09:42.958Z,-2.26
2023-01-22T04:12:11.860Z,-2.23
2023-01-22T04:14:40.495Z,-2.21
2023-01-22T04:17:10.450Z,-2.19
2023-01-22T04:19:39.042Z,-2.19
2023-01-22T04:22:07.685Z,-2.19
2023-01-22T04:24:36.541Z,-2.21
2023-01-22T04:27:05.281Z,-2.22
2023-01-22T04:29:33.811Z,-2.23
2023-01-22T04:32:02.338Z,-2.20
2023-01-22T04:34:32.394Z,-2.21
2023-01-22T04:37:00.851Z,-2.22
2023-01-22T04:39:29.563Z,-2.23
2023-01-22T04:41:58.264Z,-2.30
2023-01-22T04:44:26.947Z,-2.38
2023-01-22T04:46:55.593Z,-2.37
2023-01-22T04:49:29.022Z,-2.41
2023-01-22T04:51:59.576Z,-2.33
2023-01-22T04:54:28.319Z,-2.31
2023-01-22T04:56:56.835Z,-2.38
2023-01-22T04:59:30.588Z,-2.32
2023-01-22T05:01:59.294Z,-2.30
2023-01-22T05:04:27.486Z,-2.26
2023-01-22T05:06:56.159Z,-2.25
2023-01-22T05:09:27.864Z,-2.63
2023-01-22T05:11:56.773Z,-2.34
2023-01-22T05:14:25.328Z,-2.32
2023-01-22T05:16:56.761Z,-2.36
2023-01-22T05:19:26.308Z,-2.37
2023-01-22T05:21:54.858Z,-2.39
2023-01-22T05:24:23.408Z,-2.35
2023-01-22T05:26:53.338Z,-2.32
2023-01-22T05:29:25.849Z,-2.31
2023-01-22T05:31:54.843Z,-2.31
2023-01-22T05:34:23.559Z,-2.32
2023-01-22T05:36:51.977Z,-2.34
2023-01-22T05:39:23.064Z,-2.34
2023-01-22T05:41:53.780Z,-2.33
2023-01-22T05:44:22.541Z,-2.34
2023-01-22T05:46:59.867Z,-2.30
2023-01-22T05:49:28.333Z,-2.33
2023-01-22T05:51:56.824Z,-2.30
2023-01-22T05:54:25.592Z,-2.31
2023-01-22T05:56:55.631Z,-2.28
2023-01-22T05:59:49.608Z,-2.24
2023-01-22T06:02:18.276Z,-2.24
2023-01-22T06:04:47.051Z,-2.19
2023-01-22T06:07:15.896Z,-2.18
2023-01-22T06:09:44.581Z,-2.19
2023-01-22T06:12:16.093Z,-2.21
2023-01-22T06:14:44.660Z,-2.21
2023-01-22T06:17:13.495Z,-2.24
2023-01-22T06:19:41.882Z,-2.25
2023-01-22T06:22:10.417Z,-2.26
2023-01-22T06:24:38.714Z,-2.27
2023-01-22T06:27:07.475Z,-2.26
2023-01-22T06:29:39.854Z,-2.24
2023-01-22T06:32:09.208Z,-2.22
2023-01-22T06:34:38.519Z,-2.23
2023-01-22T06:37:07.161Z,-2.21
2023-01-22T06:39:39.163Z,-2.21
2023-01-22T06:42:08.668Z,-2.21
2023-01-22T06:44:41.239Z,-2.22
2023-01-22T06:47:09.588Z,-2.19
2023-01-22T06:49:37.913Z,-2.18
2023-01-22T06:52:07.466Z,-2.24
2023-01-22T06:54:38.988Z,-2.26
2023-01-22T06:57:08.032Z,-2.34
2023-01-22T06:59:37.298Z,-2.37
2023-01-22T07:02:07.461Z,-2.38
2023-01-22T07:04:36.039Z,-2.30
2023-01-22T07:07:04.468Z,-2.28
2023-01-22T07:09:32.971Z,-2.28
2023-01-22T07:12:02.268Z,-2.28
2023-01-22T07:14:36.729Z,-2.26
2023-01-22T07:17:07.352Z,-2.25
2023-01-22T07:19:36.368Z,-2.22
2023-01-22T07:22:05.013Z,-2.21
2023-01-22T07:24:33.400Z,-2.18
2023-01-22T07:27:03.146Z,-2.17
2023-01-22T07:29:31.934Z,-2.13
2023-01-22T07:32:00.511Z,-2.10
2023-01-22T07:34:30.715Z,-2.11
2023-01-22T07:37:02.086Z,-2.07
2023-01-22T07:39:31.721Z,-2.04
2023-01-22T07:42:02.522Z,-2.01
2023-01-22T07:44:31.524Z,-2.04
2023-01-22T07:47:08.180Z,-2.00
2023-01-22T07:49:40.279Z,-1.91
2023-01-22T07:52:08.711Z,-1.88
2023-01-22T07:54:39.812Z,-1.86
2023-01-22T07:57:08.579Z,-1.87
2023-01-22T07:59:37.522Z,-1.81
2023-01-22T08:02:06.236Z,-1.86
2023-01-22T08:04:35.071Z,-1.78
2023-01-22T08:07:05.278Z,-1.82
2023-01-22T08:09:34.097Z,-1.74
2023-01-22T08:12:03.011Z,-1.72
2023-01-22T08:14:31.763Z,-1.71
2023-01-22T08:17:00.728Z,-1.73
2023-01-22T08:19:30.335Z,-1.67
2023-01-22T08:21:59.163Z,-1.68
2023-01-22T08:24:29.317Z,-1.65
2023-01-22T08:26:58.003Z,-1.61
2023-01-22T08:29:26.681Z,-1.56
2023-01-22T08:31:55.045Z,-1.61
2023-01-22T08:34:23.733Z,-1.58
2023-01-22T08:36:52.232Z,-1.53
2023-01-22T08:39:20.734Z,-1.47
2023-01-22T08:41:52.498Z,-1.45
2023-01-22T08:44:21.800Z,-1.37
2023-01-22T08:46:51.058Z,-1.32
2023-01-22T08:49:21.619Z,-1.27
2023-01-22T08:51:51.102Z,-1.24
2023-01-22T08:54:31.900Z,-1.18
2023-01-22T08:57:02.360Z,-1.13
2023-01-22T08:59:31.245Z,-1.12
2023-01-22T09:02:00.238Z,-1.05
2023-01-22T09:04:29.304Z,-1.03
2023-01-22T09:06:57.921Z,-0.97
2023-01-22T09:10:30.273Z,-0.92
2023-01-22T09:13:02.937Z,-0.96
2023-01-22T09:15:31.968Z,-0.93
2023-01-22T09:18:01.408Z,-0.88
2023-01-22T09:20:31.257Z,-0.82
2023-01-22T09:22:59.819Z,-0.77
2023-01-22T09:25:29.435Z,-0.74
2023-01-22T09:28:05.234Z,-0.67
2023-01-22T09:30:59.618Z,-0.64
2023-01-22T09:33:29.035Z,-0.61
2023-01-22T09:36:08.110Z,-0.62
2023-01-22T09:38:39.705Z,-0.61
2023-01-22T09:41:16.083Z,-0.57
2023-01-22T09:43:51.197Z,-0.51
2023-01-22T09:46:22.917Z,-0.46
2023-01-22T09:48:54.966Z,-0.48
2023-01-22T09:51:36.486Z,-0.48
2023-01-22T09:54:07.777Z,-0.57
2023-01-22T09:56:38.135Z,-0.57
2023-01-22T09:59:11.805Z,-0.69
2023-01-22T10:01:41.789Z,-0.63
2023-01-22T10:04:23.048Z,-0.59
2023-01-22T10:07:17.750Z,-0.58
2023-01-22T10:09:51.309Z,-0.58
2023-01-22T10:12:20.488Z,-0.65
2023-01-22T10:15:02.611Z,-0.66
2023-01-22T10:17:32.606Z,-0.66
2023-01-22T10:20:05.131Z,-0.56
2023-01-22T10:22:33.871Z,-0.53
2023-01-22T10:25:02.759Z,-0.47
2023-01-22T10:27:35.892Z,-0.43
2023-01-22T10:30:10.698Z,-0.46
2023-01-22T10:32:40.077Z,-0.42
2023-01-22T10:35:22.839Z,-0.42
2023-01-22T10:37:54.140Z,-0.30
2023-01-22T10:40:31.148Z,-0.32
2023-01-22T10:43:05.733Z,-0.32
2023-01-22T10:45:36.198Z,-0.26
2023-01-22T10:48:07.051Z,-0.33
2023-01-22T10:50:35.511Z,-0.23
2023-01-22T10:53:04.835Z,-0.20
2023-01-22T10:55:34.519Z,-0.17
2023-01-22T10:58:05.392Z,-0.08
2023-01-22T11:00:51.578Z,-0.13
2023-01-22T11:03:24.004Z,-0.18
2023-01-22T11:05:56.347Z,-0.17
2023-01-22T11:08:29.578Z,-0.05
2023-01-22T11:11:00.853Z,-0.04
2023-01-22T11:13:36.587Z,-0.05
2023-01-22T11:16:11.198Z,-0.14
2023-01-22T11:18:45.421Z,-0.23
2023-01-22T11:21:16.834Z,-0.19
2023-01-22T11:23:51.057Z,-0.31
2023-01-22T11:26:27.670Z,-0.22
2023-01-22T11:29:10.317Z,-0.19
2023-01-22T11:31:52.122Z,-0.03
2023-01-22T11:34:54.145Z,-0.04
2023-01-22T11:37:26.570Z,-0.01
2023-01-22T11:40:04.600Z,0.08
2023-01-22T11:42:47.970Z,0.03
2023-01-22T11:45:31.277Z,-0.02
2023-01-22T11:48:13.387Z,-0.11
2023-01-22T11:50:45.924Z,-0.09
2023-01-22T11:53:31.607Z,0.10
2023-01-22T11:56:23.331Z,0.15
2023-01-22T11:58:55.568Z,0.28
2023-01-22T12:01:33.048Z,0.19
2023-01-22T12:04:35.158Z,0.40
2023-01-22T12:07:51.672Z,0.46
2023-01-22T12:10:40.938Z,0.48
2023-01-22T12:13:21.661Z,0.96
2023-01-22T12:15:57.687Z,1.31
2023-01-22T12:19:05.861Z,1.32
2023-01-22T12:21:46.197Z,1.36
2023-01-22T12:24:20.134Z,1.54
2023-01-22T12:26:53.864Z,1.85
2023-01-22T12:29:25.346Z,2.18
2023-01-22T12:31:57.344Z,2.20
2023-01-22T12:34:30.690Z,2.05
2023-01-22T12:37:02.457Z,2.07
2023-01-22T12:39:34.739Z,2.12
2023-01-22T12:42:15.562Z,1.88
2023-01-22T12:44:52.182Z,2.12
2023-01-22T12:47:33.427Z,2.10
2023-01-22T12:50:04.730Z,2.19
2023-01-22T12:52:37.409Z,2.59
2023-01-22T12:55:31.915Z,2.69
2023-01-22T12:58:00.879Z,3.10
2023-01-22T13:00:36.285Z,2.81
2023-01-22T13:03:06.536Z,2.76
2023-01-22T13:05:41.658Z,2.61
2023-01-22T13:08:26.891Z,2.32
2023-01-22T13:10:57.685Z,1.85
2023-01-22T13:13:31.426Z,1.63
2023-01-22T13:16:05.682Z,1.40
2023-01-22T13:18:37.356Z,1.35
2023-01-22T13:21:08.402Z,1.21
2023-01-22T13:23:46.396Z,1.50
2023-01-22T13:26:20.751Z,1.42
2023-01-22T13:28:55.508Z,1.41
2023-01-22T13:31:25.085Z,1.28
2023-01-22T13:33:59.041Z,1.12
2023-01-22T13:36:29.099Z,0.86
2023-01-22T13:39:00.737Z,0.83
2023-01-22T13:41:32.608Z,0.92
2023-01-22T13:44:01.431Z,0.66
2023-01-22T13:46:33.173Z,0.80
2023-01-22T13:49:07.694Z,0.69
2023-01-22T13:51:36.736Z,0.48
2023-01-22T13:54:08.502Z,0.64
2023-01-22T13:56:37.289Z,0.75
2023-01-22T13:59:18.963Z,0.95
2023-01-22T14:02:00.718Z,1.13
2023-01-22T14:04:34.538Z,1.10
2023-01-22T14:07:03.456Z,1.11
2023-01-22T14:09:38.617Z,0.82
2023-01-22T14:12:18.284Z,0.79
2023-01-22T14:14:47.391Z,0.81
2023-01-22T14:17:26.625Z,0.97
2023-01-22T14:19:54.942Z,0.82
2023-01-22T14:22:24.007Z,0.53
2023-01-22T14:24:54.056Z,0.45
2023-01-22T14:27:23.646Z,0.38
2023-01-22T14:29:53.785Z,0.30
2023-01-22T14:32:23.700Z,0.32
2023-01-22T14:34:52.404Z,0.30
2023-01-22T14:37:35.381Z,0.13
2023-01-22T14:40:06.201Z,0.11
2023-01-22T14:42:39.342Z,0.05
2023-01-22T14:45:09.903Z,-0.06
2023-01-22T14:47:38.651Z,-0.12
2023-01-22T14:50:08.737Z,-0.09
2023-01-22T14:52:38.729Z,-0.11
2023-01-22T14:55:09.732Z,-0.08
2023-01-22T14:57:38.498Z,-0.09
2023-01-22T15:00:08.794Z,-0.17
2023-01-22T15:02:40.134Z,-0.15
2023-01-22T15:05:10.569Z,-0.30
2023-01-22T15:07:39.889Z,-0.29
2023-01-22T15:10:11.356Z,-0.32
2023-01-22T15:12:41.105Z,-0.33
2023-01-22T15:15:10.573Z,-0.30
2023-01-22T15:17:46.142Z,-0.28
2023-01-22T15:20:14.906Z,-0.29
2023-01-22T15:22:43.398Z,-0.29
2023-01-22T15:25:13.504Z,-0.31
2023-01-22T15:27:42.267Z,-0.32
2023-01-22T15:30:13.261Z,-0.27
2023-01-22T15:32:44.213Z,-0.33
2023-01-22T15:35:12.697Z,-0.40
2023-01-22T15:37:43.345Z,-0.44
2023-01-22T15:40:14.871Z,-0.51
2023-01-22T15:42:43.595Z,-0.56
2023-01-22T15:45:12.975Z,-0.67
2023-01-22T15:47:52.887Z,-0.68
2023-01-22T15:50:22.503Z,-0.64
2023-01-22T15:53:01.824Z,-0.59
2023-01-22T15:55:34.203Z,-0.55
2023-01-22T15:58:06.299Z,-0.53
2023-01-22T16:00:35.365Z,-0.55
2023-01-22T16:03:04.441Z,-0.56
2023-01-22T16:05:36.204Z,-0.61
2023-01-22T16:08:05.384Z,-0.67
2023-01-22T16:10:42.213Z,-0.67
2023-01-22T16:13:14.048Z,-0.68
2023-01-22T16:15:43.813Z,-0.70
2023-01-22T16:18:15.753Z,-0.75
2023-01-22T16:20:44.422Z,-0.73
2023-01-22T16:23:15.683Z,-0.75
2023-01-22T16:25:48.430Z,-0.79
2023-01-22T16:28:17.645Z,-0.81
2023-01-22T16:30:46.136Z,-0.79
2023-01-22T16:33:19.951Z,-0.80
2023-01-22T16:35:48.578Z,-0.83
2023-01-22T16:38:17.286Z,-0.83
2023-01-22T16:40:48.513Z,-0.88
2023-01-22T16:43:16.969Z,-0.82
2023-01-22T16:45:51.162Z,-0.84
2023-01-22T16:48:22.923Z,-0.86
2023-01-22T16:50:59.998Z,-0.88
2023-01-22T16:53:32.005Z,-0.82
2023-01-22T16:56:02.026Z,-0.81
2023-01-22T16:58:32.213Z,-0.83
2023-01-22T17:01:04.741Z,-0.83
2023-01-22T17:03:34.029Z,-0.84
2023-01-22T17:06:02.523Z,-0.90
2023-01-22T17:08:31.670Z,-0.88
2023-01-22T17:11:03.580Z,-0.84
2023-01-22T17:13:32.719Z,-0.84
2023-01-22T17:16:01.263Z,-0.82
2023-01-22T17:18:29.996Z,-0.87
2023-01-22T17:21:03.276Z,-0.85
2023-01-22T17:23:32.687Z,-0.86
2023-01-22T17:26:01.285Z,-0.84
2023-01-22T17:29:30.975Z,-0.83
2023-01-22T17:32:06.162Z,-0.91
2023-01-22T17:34:35.725Z,-0.91
2023-01-22T17:37:08.880Z,-0.91
2023-01-22T17:39:37.540Z,-0.93
2023-01-22T17:42:06.528Z,-0.89
2023-01-22T17:44:35.584Z,-0.87
2023-01-22T17:47:08.170Z,-0.87
2023-01-22T17:49:36.820Z,-0.86
2023-01-22T17:52:06.093Z,-0.84
2023-01-22T17:54:37.068Z,-0.84
2023-01-22T17:57:06.594Z,-0.85
2023-01-22T17:59:35.641Z,-0.86
2023-01-22T18:02:05.563Z,-0.82
2023-01-22T18:04:37.793Z,-0.80
2023-01-22T18:07:06.627Z,-0.84
2023-01-22T18:09:35.209Z,-0.88
2023-01-22T18:12:04.027Z,-0.91
2023-01-22T18:14:34.310Z,-0.92
2023-01-22T18:17:03.428Z,-0.91
2023-01-22T18:19:34.118Z,-0.91
2023-01-22T18:22:09.541Z,-0.90
2023-01-22T18:24:38.598Z,-0.95
2023-01-22T18:27:10.527Z,-0.96
2023-01-22T18:29:39.535Z,-0.96
2023-01-22T18:32:18.139Z,-0.92
2023-01-22T18:34:48.379Z,-0.97
2023-01-22T18:37:17.391Z,-0.95
2023-01-22T18:39:46.004Z,-0.99
2023-01-22T18:42:14.723Z,-0.97
2023-01-22T18:44:43.515Z,-0.98
2023-01-22T18:47:13.276Z,-0.96
2023-01-22T18:49:44.384Z,-0.98
2023-01-22T18:52:15.413Z,-1.04
2023-01-22T18:54:46.999Z,-1.21
2023-01-22T18:57:16.222Z,-1.13
2023-01-22T18:59:44.894Z,-1.24
2023-01-22T19:02:19.115Z,-1.16
2023-01-22T19:04:52.260Z,-1.19
2023-01-22T19:07:28.023Z,-1.14
2023-01-22T19:09:57.232Z,-1.16
2023-01-22T19:12:26.136Z,-1.16
2023-01-22T19:14:54.956Z,-1.17
2023-01-22T19:17:25.851Z,-1.14
2023-01-22T19:19:54.733Z,-1.12
2023-01-22T19:22:24.952Z,-1.09
2023-01-22T19:24:53.657Z,-1.07
2023-01-22T19:27:22.590Z,-1.08
2023-01-22T19:30:18.696Z,-1.10
2023-01-22T19:32:47.959Z,-1.10
2023-01-22T19:35:17.235Z,-1.15
2023-01-22T19:37:47.655Z,-1.13
2023-01-22T19:40:19.957Z,-1.28
2023-01-22T19:42:49.471Z,-1.16
2023-01-22T19:45:18.821Z,-1.12
2023-01-22T19:47:47.633Z,-1.26
2023-01-22T19:50:16.967Z,-1.15
2023-01-22T19:52:49.707Z,-1.21
2023-01-22T19:55:20.120Z,-1.18
2023-01-22T19:57:49.321Z,-1.26
2023-01-22T20:00:19.089Z,-1.20
2023-01-22T20:02:48.163Z,-1.17
2023-01-22T20:05:17.978Z,-1.14
2023-01-22T20:07:46.928Z,-1.17
2023-01-22T20:10:19.392Z,-1.17
2023-01-22T20:13:21.743Z,-1.17
2023-01-22T20:15:50.689Z,-1.20
2023-01-22T20:18:19.816Z,-1.18
2023-01-22T20:20:53.721Z,-1.18
2023-01-22T20:23:22.870Z,-1.18
2023-01-22T20:25:53.151Z,-1.19
2023-01-22T20:28:22.881Z,-1.26
2023-01-22T20:31:01.898Z,-1.13
2023-01-22T20:33:31.067Z,-1.22
2023-01-22T20:36:02.151Z,-1.10
2023-01-22T20:38:33.175Z,-1.05
2023-01-22T20:41:04.953Z,-1.05
2023-01-22T20:43:34.420Z,-1.07
2023-01-22T20:46:06.774Z,-1.11
2023-01-22T20:48:36.159Z,-1.12
2023-01-22T20:51:05.634Z,-1.13
2023-01-22T20:53:34.340Z,-1.14
2023-01-22T20:56:06.041Z,-1.14
2023-01-22T20:58:36.311Z,-1.15
2023-01-22T21:01:06.523Z,-1.20
2023-01-22T21:03:35.319Z,-1.13
2023-01-22T21:06:30.199Z,-1.12
2023-01-22T21:09:01.270Z,-1.14
2023-01-22T21:11:33.050Z,-1.10
2023-01-22T21:14:04.416Z,-1.10
2023-01-22T21:16:35.448Z,-1.11
2023-01-22T21:19:06.434Z,-1.10
2023-01-22T21:21:36.170Z,-1.05
2023-01-22T21:24:07.317Z,-1.05
2023-01-22T21:26:38.654Z,-1.05
2023-01-22T21:29:14.707Z,-1.09
2023-01-22T21:31:43.505Z,-1.21
2023-01-22T21:34:15.315Z,-1.10
2023-01-22T21:36:45.350Z,-1.12
2023-01-22T21:39:19.994Z,-1.08
2023-01-22T21:41:50.234Z,-1.05
2023-01-22T21:44:37.638Z,-1.06
2023-01-22T21:47:09.943Z,-1.06
2023-01-22T21:49:39.106Z,-1.07
2023-01-22T21:52:17.118Z,-1.09
2023-01-22T21:54:46.454Z,-1.10
2023-01-22T21:57:17.868Z,-1.12
2023-01-22T21:59:47.014Z,-1.11
2023-01-22T22:02:16.769Z,-1.11
2023-01-22T22:04:45.336Z,-1.15
2023-01-22T22:08:04.116Z,-1.23
2023-01-22T22:10:32.693Z,-1.21
2023-01-22T22:13:05.524Z,-1.40
2023-01-22T22:15:35.081Z,-1.14
2023-01-22T22:18:19.114Z,-1.11
2023-01-22T22:20:47.613Z,-1.12
2023-01-22T22:23:21.176Z,-1.08
2023-01-22T22:25:50.332Z,-1.07
2023-01-22T22:28:20.287Z,-1.09
2023-01-22T22:30:48.887Z,-1.08
2023-01-22T22:33:17.744Z,-1.06
2023-01-22T22:35:47.182Z,-1.06
2023-01-22T22:38:16.501Z,-1.05
2023-01-22T22:40:45.287Z,-1.08
2023-01-22T22:43:15.948Z,-1.08
2023-01-22T22:45:46.885Z,-1.06
2023-01-22T22:48:15.679Z,-1.05
2023-01-22T22:50:44.752Z,-1.04
2023-01-22T22:53:14.148Z,-1.04
2023-01-22T22:55:42.908Z,-1.04
2023-01-22T22:58:11.555Z,-1.04
2023-01-22T23:00:42.252Z,-1.01
2023-01-22T23:03:12.629Z,-1.04
2023-01-22T23:05:41.628Z,-1.03
2023-01-22T23:08:18.398Z,-1.00
2023-01-22T23:10:47.020Z,-1.01
2023-01-22T23:13:15.519Z,-1.05
2023-01-22T23:15:44.187Z,-1.05
2023-01-22T23:18:14.663Z,-1.05
2023-01-22T23:20:43.658Z,-1.06
2023-01-22T23:23:12.415Z,-1.06
2023-01-22T23:26:30.766Z,-1.09
2023-01-22T23:29:02.378Z,-1.10
2023-01-22T23:31:33.010Z,-1.12
2023-01-22T23:34:03.805Z,-1.16
2023-01-22T23:36:57.352Z,-1.14
2023-01-22T23:39:28.048Z,-1.16
2023-01-22T23:41:56.474Z,-1.16
2023-01-22T23:44:25.164Z,-1.15
2023-01-22T23:46:53.521Z,-1.14
2023-01-22T23:49:23.744Z,-1.16
2023-01-22T23:51:53.485Z,-1.16
2023-01-22T23:54:22.197Z,-1.14
2023-01-22T23:56:50.934Z,-1.22
2023-01-22T23:59:20.116Z,-1.21
